sensor_id;sensor_type;location;lat;lon;timestamp;P1;durP1;ratioP1;P2;durP2;ratioP2
4466;SDS011;2246;42.664;23.278;2022-12-18T00:00:43;6.75;;;4.90;;
4466;SDS011;2246;42.664;23.278;2022-12-18T00:03:09;8.65;;;5.70;;
4466;SDS011;2246;42.664;23.278;2022-12-18T00:05:35;8.50;;;5.15;;
4466;SDS011;2246;42.664;23.278;2022-12-18T00:08:02;8.82;;;5.80;;
4466;SDS011;2246;42.664;23.278;2022-12-18T00:10:28;9.27;;;5.75;;
4466;SDS011;2246;42.664;23.278;2022-12-18T00:12:54;9.27;;;5.22;;
4466;SDS011;2246;42.664;23.278;2022-12-18T00:15:20;9.68;;;5.32;;
4466;SDS011;2246;42.664;23.278;2022-12-18T00:17:46;7.47;;;5.03;;
4466;SDS011;2246;42.664;23.278;2022-12-18T00:20:12;8.43;;;5.40;;
4466;SDS011;2246;42.664;23.278;2022-12-18T00:22:38;8.95;;;5.50;;
4466;SDS011;2246;42.664;23.278;2022-12-18T00:25:05;9.98;;;6.22;;
4466;SDS011;2246;42.664;23.278;2022-12-18T00:27:31;9.77;;;6.03;;
4466;SDS011;2246;42.664;23.278;2022-12-18T00:29:57;9.48;;;5.22;;
4466;SDS011;2246;42.664;23.278;2022-12-18T00:32:23;9.90;;;6.38;;
4466;SDS011;2246;42.664;23.278;2022-12-18T00:34:49;8.48;;;5.35;;
4466;SDS011;2246;42.664;23.278;2022-12-18T00:37:15;7.63;;;5.13;;
4466;SDS011;2246;42.664;23.278;2022-12-18T00:39:41;8.88;;;5.97;;
4466;SDS011;2246;42.664;23.278;2022-12-18T00:42:07;8.30;;;5.88;;
4466;SDS011;2246;42.664;23.278;2022-12-18T00:44:53;8.98;;;5.72;;
4466;SDS011;2246;42.664;23.278;2022-12-18T00:47:19;9.38;;;5.30;;
4466;SDS011;2246;42.664;23.278;2022-12-18T00:49:45;51.88;;;19.77;;
4466;SDS011;2246;42.664;23.278;2022-12-18T00:52:11;11.95;;;6.43;;
4466;SDS011;2246;42.664;23.278;2022-12-18T00:54:37;9.27;;;5.95;;
4466;SDS011;2246;42.664;23.278;2022-12-18T00:57:03;9.00;;;5.63;;
4466;SDS011;2246;42.664;23.278;2022-12-18T00:59:29;12.68;;;6.05;;
4466;SDS011;2246;42.664;23.278;2022-12-18T01:01:55;10.70;;;5.55;;
4466;SDS011;2246;42.664;23.278;2022-12-18T01:04:21;8.85;;;5.25;;
4466;SDS011;2246;42.664;23.278;2022-12-18T01:06:47;9.35;;;5.13;;
4466;SDS011;2246;42.664;23.278;2022-12-18T01:09:13;7.25;;;5.03;;
4466;SDS011;2246;42.664;23.278;2022-12-18T01:11:39;11.00;;;5.85;;
4466;SDS011;2246;42.664;23.278;2022-12-18T01:14:05;10.23;;;6.30;;
4466;SDS011;2246;42.664;23.278;2022-12-18T01:16:32;11.43;;;6.57;;
4466;SDS011;2246;42.664;23.278;2022-12-18T01:18:58;11.55;;;6.82;;
4466;SDS011;2246;42.664;23.278;2022-12-18T01:21:24;11.02;;;6.35;;
4466;SDS011;2246;42.664;23.278;2022-12-18T01:23:53;9.70;;;5.93;;
4466;SDS011;2246;42.664;23.278;2022-12-18T01:26:20;10.65;;;6.68;;
4466;SDS011;2246;42.664;23.278;2022-12-18T01:28:46;10.80;;;6.55;;
4466;SDS011;2246;42.664;23.278;2022-12-18T01:31:19;11.68;;;6.85;;
4466;SDS011;2246;42.664;23.278;2022-12-18T01:33:46;11.57;;;6.60;;
4466;SDS011;2246;42.664;23.278;2022-12-18T01:36:18;14.35;;;6.75;;
4466;SDS011;2246;42.664;23.278;2022-12-18T01:38:45;14.18;;;7.07;;
4466;SDS011;2246;42.664;23.278;2022-12-18T01:41:11;13.73;;;6.88;;
4466;SDS011;2246;42.664;23.278;2022-12-18T01:43:42;12.35;;;7.47;;
4466;SDS011;2246;42.664;23.278;2022-12-18T01:46:08;14.80;;;8.48;;
4466;SDS011;2246;42.664;23.278;2022-12-18T01:48:34;12.98;;;7.00;;
4466;SDS011;2246;42.664;23.278;2022-12-18T01:51:00;13.50;;;7.22;;
4466;SDS011;2246;42.664;23.278;2022-12-18T01:53:26;13.75;;;7.45;;
4466;SDS011;2246;42.664;23.278;2022-12-18T01:55:53;13.30;;;7.18;;
4466;SDS011;2246;42.664;23.278;2022-12-18T01:58:23;16.40;;;7.90;;
4466;SDS011;2246;42.664;23.278;2022-12-18T02:00:50;13.50;;;7.30;;
4466;SDS011;2246;42.664;23.278;2022-12-18T02:03:16;13.38;;;8.00;;
4466;SDS011;2246;42.664;23.278;2022-12-18T02:13:43;13.52;;;7.20;;
4466;SDS011;2246;42.664;23.278;2022-12-18T02:18:42;13.73;;;7.32;;
4466;SDS011;2246;42.664;23.278;2022-12-18T02:29:08;11.25;;;6.88;;
4466;SDS011;2246;42.664;23.278;2022-12-18T02:31:40;12.23;;;6.80;;
4466;SDS011;2246;42.664;23.278;2022-12-18T02:34:07;12.77;;;6.95;;
4466;SDS011;2246;42.664;23.278;2022-12-18T02:36:34;11.25;;;6.57;;
4466;SDS011;2246;42.664;23.278;2022-12-18T02:41:28;12.48;;;6.80;;
4466;SDS011;2246;42.664;23.278;2022-12-18T02:43:56;14.95;;;6.88;;
4466;SDS011;2246;42.664;23.278;2022-12-18T02:46:25;10.85;;;6.15;;
4466;SDS011;2246;42.664;23.278;2022-12-18T02:48:53;11.93;;;6.88;;
4466;SDS011;2246;42.664;23.278;2022-12-18T02:51:23;11.90;;;6.88;;
4466;SDS011;2246;42.664;23.278;2022-12-18T02:54:02;11.43;;;6.45;;
4466;SDS011;2246;42.664;23.278;2022-12-18T02:56:30;12.68;;;7.03;;
4466;SDS011;2246;42.664;23.278;2022-12-18T02:59:02;11.32;;;6.32;;
4466;SDS011;2246;42.664;23.278;2022-12-18T03:02:15;9.60;;;6.18;;
4466;SDS011;2246;42.664;23.278;2022-12-18T03:04:20;8.05;;;5.47;;
4466;SDS011;2246;42.664;23.278;2022-12-18T03:06:50;8.23;;;5.07;;
4466;SDS011;2246;42.664;23.278;2022-12-18T03:09:19;10.00;;;6.13;;
4466;SDS011;2246;42.664;23.278;2022-12-18T03:11:48;11.95;;;6.10;;
4466;SDS011;2246;42.664;23.278;2022-12-18T03:14:34;10.70;;;5.93;;
4466;SDS011;2246;42.664;23.278;2022-12-18T03:17:03;9.48;;;5.25;;
4466;SDS011;2246;42.664;23.278;2022-12-18T03:19:31;10.20;;;5.78;;
4466;SDS011;2246;42.664;23.278;2022-12-18T03:24:35;11.98;;;5.57;;
4466;SDS011;2246;42.664;23.278;2022-12-18T03:27:05;9.70;;;5.18;;
4466;SDS011;2246;42.664;23.278;2022-12-18T03:29:40;9.70;;;4.90;;
4466;SDS011;2246;42.664;23.278;2022-12-18T03:32:10;6.80;;;4.05;;
4466;SDS011;2246;42.664;23.278;2022-12-18T03:34:37;9.18;;;4.80;;
4466;SDS011;2246;42.664;23.278;2022-12-18T03:37:04;8.02;;;3.88;;
4466;SDS011;2246;42.664;23.278;2022-12-18T03:39:31;8.18;;;5.03;;
4466;SDS011;2246;42.664;23.278;2022-12-18T03:47:04;9.10;;;5.07;;
4466;SDS011;2246;42.664;23.278;2022-12-18T03:49:38;7.80;;;4.70;;
4466;SDS011;2246;42.664;23.278;2022-12-18T03:52:17;9.65;;;4.80;;
4466;SDS011;2246;42.664;23.278;2022-12-18T03:54:44;8.10;;;4.95;;
4466;SDS011;2246;42.664;23.278;2022-12-18T03:57:21;8.03;;;4.93;;
4466;SDS011;2246;42.664;23.278;2022-12-18T03:59:49;10.77;;;5.63;;
4466;SDS011;2246;42.664;23.278;2022-12-18T04:02:16;9.32;;;5.13;;
4466;SDS011;2246;42.664;23.278;2022-12-18T04:04:43;6.63;;;4.32;;
4466;SDS011;2246;42.664;23.278;2022-12-18T04:07:10;8.63;;;4.60;;
4466;SDS011;2246;42.664;23.278;2022-12-18T04:09:38;9.05;;;5.03;;
4466;SDS011;2246;42.664;23.278;2022-12-18T04:12:04;10.55;;;5.60;;
4466;SDS011;2246;42.664;23.278;2022-12-18T04:14:30;9.63;;;5.20;;
4466;SDS011;2246;42.664;23.278;2022-12-18T04:17:00;13.55;;;5.53;;
4466;SDS011;2246;42.664;23.278;2022-12-18T04:19:26;12.57;;;6.05;;
4466;SDS011;2246;42.664;23.278;2022-12-18T04:21:52;11.10;;;5.95;;
4466;SDS011;2246;42.664;23.278;2022-12-18T04:24:18;12.77;;;5.78;;
4466;SDS011;2246;42.664;23.278;2022-12-18T04:26:44;9.43;;;4.68;;
4466;SDS011;2246;42.664;23.278;2022-12-18T04:29:10;12.23;;;5.38;;
4466;SDS011;2246;42.664;23.278;2022-12-18T04:31:37;11.80;;;5.25;;
4466;SDS011;2246;42.664;23.278;2022-12-18T04:34:03;9.80;;;5.50;;
4466;SDS011;2246;42.664;23.278;2022-12-18T04:36:29;9.90;;;5.53;;
4466;SDS011;2246;42.664;23.278;2022-12-18T04:38:55;9.82;;;5.18;;
4466;SDS011;2246;42.664;23.278;2022-12-18T04:41:21;11.10;;;6.03;;
4466;SDS011;2246;42.664;23.278;2022-12-18T04:43:47;11.52;;;6.53;;
4466;SDS011;2246;42.664;23.278;2022-12-18T04:46:13;15.45;;;6.65;;
4466;SDS011;2246;42.664;23.278;2022-12-18T04:48:39;9.95;;;6.30;;
4466;SDS011;2246;42.664;23.278;2022-12-18T04:51:05;11.75;;;6.65;;
4466;SDS011;2246;42.664;23.278;2022-12-18T04:53:32;12.30;;;6.40;;
4466;SDS011;2246;42.664;23.278;2022-12-18T04:56:11;10.57;;;6.35;;
4466;SDS011;2246;42.664;23.278;2022-12-18T04:58:38;11.50;;;6.28;;
4466;SDS011;2246;42.664;23.278;2022-12-18T05:01:05;14.02;;;6.32;;
4466;SDS011;2246;42.664;23.278;2022-12-18T05:03:32;12.13;;;6.32;;
4466;SDS011;2246;42.664;23.278;2022-12-18T05:05:59;15.27;;;6.63;;
4466;SDS011;2246;42.664;23.278;2022-12-18T05:08:25;13.68;;;6.60;;
4466;SDS011;2246;42.664;23.278;2022-12-18T05:10:58;14.30;;;7.13;;
4466;SDS011;2246;42.664;23.278;2022-12-18T05:13:24;14.00;;;7.03;;
4466;SDS011;2246;42.664;23.278;2022-12-18T05:15:53;12.85;;;6.13;;
4466;SDS011;2246;42.664;23.278;2022-12-18T05:18:20;14.27;;;7.03;;
4466;SDS011;2246;42.664;23.278;2022-12-18T05:20:46;15.95;;;8.00;;
4466;SDS011;2246;42.664;23.278;2022-12-18T05:23:12;16.75;;;8.07;;
4466;SDS011;2246;42.664;23.278;2022-12-18T05:25:38;16.70;;;8.75;;
4466;SDS011;2246;42.664;23.278;2022-12-18T05:28:04;16.98;;;9.18;;
4466;SDS011;2246;42.664;23.278;2022-12-18T05:30:30;16.13;;;8.20;;
4466;SDS011;2246;42.664;23.278;2022-12-18T05:32:56;19.77;;;9.35;;
4466;SDS011;2246;42.664;23.278;2022-12-18T05:35:22;16.27;;;8.85;;
4466;SDS011;2246;42.664;23.278;2022-12-18T05:37:48;15.82;;;8.77;;
4466;SDS011;2246;42.664;23.278;2022-12-18T05:40:14;16.05;;;9.07;;
4466;SDS011;2246;42.664;23.278;2022-12-18T05:42:41;15.80;;;8.48;;
4466;SDS011;2246;42.664;23.278;2022-12-18T05:45:07;15.60;;;8.43;;
4466;SDS011;2246;42.664;23.278;2022-12-18T05:47:33;18.85;;;9.18;;
4466;SDS011;2246;42.664;23.278;2022-12-18T05:49:59;19.80;;;9.85;;
4466;SDS011;2246;42.664;23.278;2022-12-18T05:52:25;19.83;;;8.70;;
4466;SDS011;2246;42.664;23.278;2022-12-18T05:54:51;20.25;;;10.05;;
4466;SDS011;2246;42.664;23.278;2022-12-18T05:57:17;18.60;;;9.52;;
4466;SDS011;2246;42.664;23.278;2022-12-18T05:59:43;21.95;;;9.05;;
4466;SDS011;2246;42.664;23.278;2022-12-18T06:02:09;20.10;;;9.88;;
4466;SDS011;2246;42.664;23.278;2022-12-18T06:04:35;17.67;;;9.68;;
4466;SDS011;2246;42.664;23.278;2022-12-18T06:07:03;18.20;;;9.05;;
4466;SDS011;2246;42.664;23.278;2022-12-18T06:09:29;19.15;;;10.02;;
4466;SDS011;2246;42.664;23.278;2022-12-18T06:11:55;20.73;;;9.70;;
4466;SDS011;2246;42.664;23.278;2022-12-18T06:14:21;20.52;;;10.02;;
4466;SDS011;2246;42.664;23.278;2022-12-18T06:16:47;19.55;;;9.60;;
4466;SDS011;2246;42.664;23.278;2022-12-18T06:19:16;19.90;;;9.70;;
4466;SDS011;2246;42.664;23.278;2022-12-18T06:21:42;22.65;;;10.48;;
4466;SDS011;2246;42.664;23.278;2022-12-18T06:24:08;16.92;;;8.38;;
4466;SDS011;2246;42.664;23.278;2022-12-18T06:26:36;17.48;;;8.27;;
4466;SDS011;2246;42.664;23.278;2022-12-18T06:29:02;17.73;;;9.35;;
4466;SDS011;2246;42.664;23.278;2022-12-18T06:31:29;16.90;;;8.70;;
4466;SDS011;2246;42.664;23.278;2022-12-18T06:33:55;18.77;;;8.93;;
4466;SDS011;2246;42.664;23.278;2022-12-18T06:36:21;20.75;;;9.80;;
4466;SDS011;2246;42.664;23.278;2022-12-18T06:38:47;19.80;;;9.80;;
4466;SDS011;2246;42.664;23.278;2022-12-18T06:41:14;22.38;;;10.07;;
4466;SDS011;2246;42.664;23.278;2022-12-18T06:43:40;19.83;;;8.88;;
4466;SDS011;2246;42.664;23.278;2022-12-18T06:46:06;18.60;;;8.68;;
4466;SDS011;2246;42.664;23.278;2022-12-18T06:48:32;17.42;;;8.65;;
4466;SDS011;2246;42.664;23.278;2022-12-18T06:50:59;18.55;;;8.57;;
4466;SDS011;2246;42.664;23.278;2022-12-18T06:53:25;18.92;;;9.43;;
4466;SDS011;2246;42.664;23.278;2022-12-18T06:55:51;19.40;;;9.80;;
4466;SDS011;2246;42.664;23.278;2022-12-18T06:58:17;18.73;;;9.20;;
4466;SDS011;2246;42.664;23.278;2022-12-18T07:00:43;23.42;;;10.15;;
4466;SDS011;2246;42.664;23.278;2022-12-18T07:03:09;21.30;;;10.82;;
4466;SDS011;2246;42.664;23.278;2022-12-18T07:05:39;19.92;;;9.32;;
4466;SDS011;2246;42.664;23.278;2022-12-18T07:08:05;18.52;;;9.15;;
4466;SDS011;2246;42.664;23.278;2022-12-18T07:10:32;20.70;;;10.15;;
4466;SDS011;2246;42.664;23.278;2022-12-18T07:12:58;23.10;;;10.77;;
4466;SDS011;2246;42.664;23.278;2022-12-18T07:15:24;26.10;;;11.70;;
4466;SDS011;2246;42.664;23.278;2022-12-18T07:17:50;20.77;;;10.05;;
4466;SDS011;2246;42.664;23.278;2022-12-18T07:20:16;21.77;;;10.35;;
4466;SDS011;2246;42.664;23.278;2022-12-18T07:22:42;17.63;;;9.95;;
4466;SDS011;2246;42.664;23.278;2022-12-18T07:25:08;22.02;;;11.02;;
4466;SDS011;2246;42.664;23.278;2022-12-18T07:27:34;20.30;;;9.57;;
4466;SDS011;2246;42.664;23.278;2022-12-18T07:30:00;20.50;;;9.85;;
4466;SDS011;2246;42.664;23.278;2022-12-18T07:32:26;21.55;;;10.02;;
4466;SDS011;2246;42.664;23.278;2022-12-18T07:34:52;19.60;;;10.38;;
4466;SDS011;2246;42.664;23.278;2022-12-18T07:37:18;21.85;;;10.73;;
4466;SDS011;2246;42.664;23.278;2022-12-18T07:39:44;35.80;;;13.68;;
4466;SDS011;2246;42.664;23.278;2022-12-18T07:42:10;24.05;;;11.68;;
4466;SDS011;2246;42.664;23.278;2022-12-18T07:44:55;22.58;;;10.80;;
4466;SDS011;2246;42.664;23.278;2022-12-18T07:47:21;23.15;;;11.05;;
4466;SDS011;2246;42.664;23.278;2022-12-18T07:49:47;24.13;;;10.80;;
4466;SDS011;2246;42.664;23.278;2022-12-18T07:52:14;25.83;;;11.57;;
4466;SDS011;2246;42.664;23.278;2022-12-18T07:54:40;22.75;;;11.13;;
4466;SDS011;2246;42.664;23.278;2022-12-18T07:57:07;21.77;;;10.98;;
4466;SDS011;2246;42.664;23.278;2022-12-18T07:59:33;24.67;;;12.15;;
4466;SDS011;2246;42.664;23.278;2022-12-18T08:01:59;25.95;;;12.48;;
4466;SDS011;2246;42.664;23.278;2022-12-18T08:04:25;23.27;;;11.65;;
4466;SDS011;2246;42.664;23.278;2022-12-18T08:06:51;23.25;;;11.68;;
4466;SDS011;2246;42.664;23.278;2022-12-18T08:09:17;26.85;;;12.70;;
4466;SDS011;2246;42.664;23.278;2022-12-18T08:11:43;26.00;;;11.77;;
4466;SDS011;2246;42.664;23.278;2022-12-18T08:14:09;29.15;;;12.82;;
4466;SDS011;2246;42.664;23.278;2022-12-18T08:16:35;26.42;;;12.50;;
4466;SDS011;2246;42.664;23.278;2022-12-18T08:19:01;23.02;;;12.23;;
4466;SDS011;2246;42.664;23.278;2022-12-18T08:21:29;33.38;;;15.52;;
4466;SDS011;2246;42.664;23.278;2022-12-18T08:23:56;27.92;;;13.45;;
4466;SDS011;2246;42.664;23.278;2022-12-18T08:26:23;25.83;;;12.45;;
4466;SDS011;2246;42.664;23.278;2022-12-18T08:28:49;26.13;;;13.27;;
4466;SDS011;2246;42.664;23.278;2022-12-18T08:31:16;32.60;;;14.43;;
4466;SDS011;2246;42.664;23.278;2022-12-18T08:33:42;35.80;;;13.70;;
4466;SDS011;2246;42.664;23.278;2022-12-18T08:36:08;33.15;;;15.05;;
4466;SDS011;2246;42.664;23.278;2022-12-18T08:38:35;27.45;;;12.35;;
4466;SDS011;2246;42.664;23.278;2022-12-18T08:41:02;30.08;;;13.25;;
4466;SDS011;2246;42.664;23.278;2022-12-18T08:43:28;31.88;;;13.50;;
4466;SDS011;2246;42.664;23.278;2022-12-18T08:46:17;31.33;;;13.38;;
4466;SDS011;2246;42.664;23.278;2022-12-18T08:48:43;31.02;;;15.25;;
4466;SDS011;2246;42.664;23.278;2022-12-18T08:51:09;31.70;;;15.45;;
4466;SDS011;2246;42.664;23.278;2022-12-18T08:53:35;28.75;;;14.00;;
4466;SDS011;2246;42.664;23.278;2022-12-18T08:56:02;31.05;;;14.75;;
4466;SDS011;2246;42.664;23.278;2022-12-18T08:58:28;30.33;;;14.27;;
4466;SDS011;2246;42.664;23.278;2022-12-18T09:00:59;31.85;;;15.70;;
4466;SDS011;2246;42.664;23.278;2022-12-18T09:03:25;34.35;;;15.70;;
4466;SDS011;2246;42.664;23.278;2022-12-18T09:05:51;32.25;;;15.27;;
4466;SDS011;2246;42.664;23.278;2022-12-18T09:08:17;31.45;;;14.63;;
4466;SDS011;2246;42.664;23.278;2022-12-18T09:10:46;34.13;;;15.48;;
4466;SDS011;2246;42.664;23.278;2022-12-18T09:13:13;34.15;;;15.73;;
4466;SDS011;2246;42.664;23.278;2022-12-18T09:15:43;33.22;;;15.77;;
4466;SDS011;2246;42.664;23.278;2022-12-18T09:18:14;33.78;;;14.30;;
4466;SDS011;2246;42.664;23.278;2022-12-18T09:20:40;33.97;;;14.57;;
4466;SDS011;2246;42.664;23.278;2022-12-18T09:23:07;30.55;;;14.48;;
4466;SDS011;2246;42.664;23.278;2022-12-18T09:25:33;32.30;;;14.80;;
4466;SDS011;2246;42.664;23.278;2022-12-18T09:28:01;30.23;;;14.53;;
4466;SDS011;2246;42.664;23.278;2022-12-18T09:30:27;35.40;;;15.32;;
4466;SDS011;2246;42.664;23.278;2022-12-18T09:32:53;27.42;;;13.98;;
4466;SDS011;2246;42.664;23.278;2022-12-18T09:35:20;30.90;;;14.20;;
4466;SDS011;2246;42.664;23.278;2022-12-18T09:37:46;33.78;;;15.30;;
4466;SDS011;2246;42.664;23.278;2022-12-18T09:40:13;31.63;;;14.85;;
4466;SDS011;2246;42.664;23.278;2022-12-18T09:42:40;31.35;;;14.75;;
4466;SDS011;2246;42.664;23.278;2022-12-18T09:45:07;33.22;;;15.68;;
4466;SDS011;2246;42.664;23.278;2022-12-18T09:47:37;32.38;;;15.23;;
4466;SDS011;2246;42.664;23.278;2022-12-18T09:50:06;32.47;;;14.77;;
4466;SDS011;2246;42.664;23.278;2022-12-18T09:52:45;33.53;;;15.10;;
4466;SDS011;2246;42.664;23.278;2022-12-18T09:58:00;29.45;;;14.27;;
4466;SDS011;2246;42.664;23.278;2022-12-18T10:00:28;34.47;;;14.13;;
4466;SDS011;2246;42.664;23.278;2022-12-18T10:02:59;31.85;;;14.23;;
4466;SDS011;2246;42.664;23.278;2022-12-18T10:08:13;22.25;;;11.63;;
4466;SDS011;2246;42.664;23.278;2022-12-18T10:10:52;26.02;;;12.65;;
4466;SDS011;2246;42.664;23.278;2022-12-18T10:18:42;24.85;;;11.85;;
4466;SDS011;2246;42.664;23.278;2022-12-18T10:21:10;25.27;;;12.05;;
4466;SDS011;2246;42.664;23.278;2022-12-18T10:23:51;26.58;;;11.45;;
4466;SDS011;2246;42.664;23.278;2022-12-18T10:26:22;23.33;;;11.55;;
4466;SDS011;2246;42.664;23.278;2022-12-18T10:28:48;22.15;;;11.65;;
4466;SDS011;2246;42.664;23.278;2022-12-18T10:31:15;26.65;;;12.70;;
4466;SDS011;2246;42.664;23.278;2022-12-18T10:33:42;22.35;;;11.10;;
4466;SDS011;2246;42.664;23.278;2022-12-18T10:36:08;25.33;;;12.02;;
4466;SDS011;2246;42.664;23.278;2022-12-18T10:38:34;26.17;;;12.05;;
4466;SDS011;2246;42.664;23.278;2022-12-18T10:43:30;25.05;;;11.48;;
4466;SDS011;2246;42.664;23.278;2022-12-18T10:46:00;24.95;;;11.48;;
4466;SDS011;2246;42.664;23.278;2022-12-18T10:48:27;29.52;;;12.48;;
4466;SDS011;2246;42.664;23.278;2022-12-18T10:50:53;25.52;;;11.50;;
4466;SDS011;2246;42.664;23.278;2022-12-18T10:53:22;27.92;;;12.20;;
4466;SDS011;2246;42.664;23.278;2022-12-18T10:55:48;33.40;;;13.90;;
4466;SDS011;2246;42.664;23.278;2022-12-18T11:01:01;27.02;;;12.73;;
4466;SDS011;2246;42.664;23.278;2022-12-18T11:03:41;28.35;;;12.55;;
4466;SDS011;2246;42.664;23.278;2022-12-18T11:08:36;25.35;;;11.07;;
4466;SDS011;2246;42.664;23.278;2022-12-18T11:11:02;23.83;;;10.65;;
4466;SDS011;2246;42.664;23.278;2022-12-18T11:13:30;27.85;;;10.32;;
4466;SDS011;2246;42.664;23.278;2022-12-18T11:15:57;17.30;;;7.80;;
4466;SDS011;2246;42.664;23.278;2022-12-18T11:20:54;24.05;;;10.68;;
4466;SDS011;2246;42.664;23.278;2022-12-18T11:23:21;25.15;;;11.30;;
4466;SDS011;2246;42.664;23.278;2022-12-18T11:25:51;24.35;;;10.77;;
4466;SDS011;2246;42.664;23.278;2022-12-18T11:28:52;21.45;;;10.23;;
4466;SDS011;2246;42.664;23.278;2022-12-18T11:34:31;27.45;;;11.55;;
4466;SDS011;2246;42.664;23.278;2022-12-18T11:36:33;24.10;;;10.93;;
4466;SDS011;2246;42.664;23.278;2022-12-18T11:39:03;24.33;;;10.85;;
4466;SDS011;2246;42.664;23.278;2022-12-18T11:41:37;22.65;;;10.57;;
4466;SDS011;2246;42.664;23.278;2022-12-18T11:44:27;25.77;;;10.98;;
4466;SDS011;2246;42.664;23.278;2022-12-18T11:47:01;26.80;;;10.90;;
4466;SDS011;2246;42.664;23.278;2022-12-18T11:49:33;23.13;;;10.02;;
4466;SDS011;2246;42.664;23.278;2022-12-18T11:54:44;20.02;;;9.98;;
4466;SDS011;2246;42.664;23.278;2022-12-18T11:57:19;25.30;;;11.65;;
4466;SDS011;2246;42.664;23.278;2022-12-18T12:00:11;23.70;;;11.48;;
4466;SDS011;2246;42.664;23.278;2022-12-18T12:05:16;24.48;;;10.55;;
4466;SDS011;2246;42.664;23.278;2022-12-18T12:07:54;25.45;;;11.23;;
4466;SDS011;2246;42.664;23.278;2022-12-18T12:18:08;24.83;;;11.07;;
4466;SDS011;2246;42.664;23.278;2022-12-18T12:23:06;21.95;;;10.70;;
4466;SDS011;2246;42.664;23.278;2022-12-18T12:28:12;28.40;;;12.98;;
4466;SDS011;2246;42.664;23.278;2022-12-18T12:33:12;24.65;;;11.20;;
4466;SDS011;2246;42.664;23.278;2022-12-18T12:38:23;26.40;;;11.85;;
4466;SDS011;2246;42.664;23.278;2022-12-18T12:41:00;28.95;;;12.40;;
4466;SDS011;2246;42.664;23.278;2022-12-18T12:43:33;27.17;;;11.77;;
4466;SDS011;2246;42.664;23.278;2022-12-18T12:46:08;31.60;;;13.73;;
4466;SDS011;2246;42.664;23.278;2022-12-18T12:48:36;27.95;;;13.57;;
4466;SDS011;2246;42.664;23.278;2022-12-18T12:51:08;31.55;;;14.63;;
4466;SDS011;2246;42.664;23.278;2022-12-18T12:53:35;29.10;;;12.35;;
4466;SDS011;2246;42.664;23.278;2022-12-18T12:56:03;27.73;;;13.25;;
4466;SDS011;2246;42.664;23.278;2022-12-18T13:04:05;28.20;;;13.05;;
4466;SDS011;2246;42.664;23.278;2022-12-18T13:06:40;26.40;;;13.10;;
4466;SDS011;2246;42.664;23.278;2022-12-18T13:09:09;31.98;;;12.68;;
4466;SDS011;2246;42.664;23.278;2022-12-18T13:11:39;30.83;;;12.93;;
4466;SDS011;2246;42.664;23.278;2022-12-18T13:14:34;27.20;;;12.48;;
4466;SDS011;2246;42.664;23.278;2022-12-18T13:19:42;30.13;;;13.02;;
4466;SDS011;2246;42.664;23.278;2022-12-18T13:22:22;36.88;;;18.67;;
4466;SDS011;2246;42.664;23.278;2022-12-18T13:24:49;28.30;;;12.63;;
4466;SDS011;2246;42.664;23.278;2022-12-18T13:30:00;23.88;;;11.07;;
4466;SDS011;2246;42.664;23.278;2022-12-18T13:32:26;26.48;;;10.65;;
4466;SDS011;2246;42.664;23.278;2022-12-18T13:37:41;29.05;;;12.32;;
4466;SDS011;2246;42.664;23.278;2022-12-18T13:42:52;28.35;;;12.23;;
4466;SDS011;2246;42.664;23.278;2022-12-18T13:45:38;26.05;;;11.98;;
4466;SDS011;2246;42.664;23.278;2022-12-18T13:48:05;29.33;;;12.82;;
4466;SDS011;2246;42.664;23.278;2022-12-18T13:50:31;25.25;;;12.10;;
4466;SDS011;2246;42.664;23.278;2022-12-18T13:52:59;25.33;;;11.73;;
4466;SDS011;2246;42.664;23.278;2022-12-18T13:55:25;25.67;;;12.57;;
4466;SDS011;2246;42.664;23.278;2022-12-18T13:57:51;25.30;;;11.88;;
4466;SDS011;2246;42.664;23.278;2022-12-18T14:00:29;32.33;;;14.00;;
4466;SDS011;2246;42.664;23.278;2022-12-18T14:02:55;63.47;;;26.15;;
4466;SDS011;2246;42.664;23.278;2022-12-18T14:05:26;29.52;;;13.57;;
4466;SDS011;2246;42.664;23.278;2022-12-18T14:07:52;26.48;;;12.30;;
4466;SDS011;2246;42.664;23.278;2022-12-18T14:10:19;27.13;;;12.23;;
4466;SDS011;2246;42.664;23.278;2022-12-18T14:12:46;26.48;;;11.63;;
4466;SDS011;2246;42.664;23.278;2022-12-18T14:18:52;25.63;;;11.50;;
4466;SDS011;2246;42.664;23.278;2022-12-18T14:20:46;27.58;;;11.88;;
4466;SDS011;2246;42.664;23.278;2022-12-18T14:25:50;26.35;;;11.55;;
4466;SDS011;2246;42.664;23.278;2022-12-18T14:28:16;28.55;;;12.32;;
4466;SDS011;2246;42.664;23.278;2022-12-18T14:30:43;28.17;;;12.35;;
4466;SDS011;2246;42.664;23.278;2022-12-18T14:33:17;34.90;;;13.55;;
4466;SDS011;2246;42.664;23.278;2022-12-18T14:38:26;30.45;;;12.05;;
4466;SDS011;2246;42.664;23.278;2022-12-18T14:43:29;26.90;;;11.55;;
4466;SDS011;2246;42.664;23.278;2022-12-18T14:45:55;25.42;;;11.30;;
4466;SDS011;2246;42.664;23.278;2022-12-18T14:48:38;31.27;;;12.73;;
4466;SDS011;2246;42.664;23.278;2022-12-18T14:51:05;29.45;;;12.32;;
4466;SDS011;2246;42.664;23.278;2022-12-18T14:53:34;26.90;;;12.38;;
4466;SDS011;2246;42.664;23.278;2022-12-18T14:56:00;35.38;;;12.38;;
4466;SDS011;2246;42.664;23.278;2022-12-18T14:58:27;30.90;;;13.02;;
4466;SDS011;2246;42.664;23.278;2022-12-18T15:00:53;31.80;;;12.43;;
4466;SDS011;2246;42.664;23.278;2022-12-18T15:03:20;23.95;;;11.10;;
4466;SDS011;2246;42.664;23.278;2022-12-18T15:05:46;27.45;;;12.60;;
4466;SDS011;2246;42.664;23.278;2022-12-18T15:08:29;26.50;;;11.45;;
4466;SDS011;2246;42.664;23.278;2022-12-18T15:10:55;28.08;;;11.38;;
4466;SDS011;2246;42.664;23.278;2022-12-18T15:13:22;25.10;;;11.35;;
4466;SDS011;2246;42.664;23.278;2022-12-18T15:15:49;26.52;;;11.70;;
4466;SDS011;2246;42.664;23.278;2022-12-18T15:18:16;25.08;;;10.27;;
4466;SDS011;2246;42.664;23.278;2022-12-18T15:23:17;22.27;;;9.95;;
4466;SDS011;2246;42.664;23.278;2022-12-18T15:25:44;24.80;;;10.60;;
4466;SDS011;2246;42.664;23.278;2022-12-18T15:28:19;24.02;;;10.48;;
4466;SDS011;2246;42.664;23.278;2022-12-18T15:31:00;21.55;;;9.98;;
4466;SDS011;2246;42.664;23.278;2022-12-18T15:33:29;28.08;;;11.15;;
4466;SDS011;2246;42.664;23.278;2022-12-18T15:35:56;20.77;;;9.65;;
4466;SDS011;2246;42.664;23.278;2022-12-18T15:38:22;26.83;;;11.48;;
4466;SDS011;2246;42.664;23.278;2022-12-18T15:40:49;24.38;;;10.90;;
4466;SDS011;2246;42.664;23.278;2022-12-18T15:43:15;20.40;;;9.93;;
4466;SDS011;2246;42.664;23.278;2022-12-18T15:46:00;25.73;;;10.05;;
4466;SDS011;2246;42.664;23.278;2022-12-18T15:48:26;22.65;;;9.43;;
4466;SDS011;2246;42.664;23.278;2022-12-18T15:50:52;24.40;;;10.07;;
4466;SDS011;2246;42.664;23.278;2022-12-18T15:53:20;20.85;;;9.32;;
4466;SDS011;2246;42.664;23.278;2022-12-18T15:55:46;22.92;;;10.00;;
4466;SDS011;2246;42.664;23.278;2022-12-18T15:58:31;24.30;;;11.10;;
4466;SDS011;2246;42.664;23.278;2022-12-18T16:00:58;22.95;;;10.27;;
4466;SDS011;2246;42.664;23.278;2022-12-18T16:03:25;21.83;;;10.50;;
4466;SDS011;2246;42.664;23.278;2022-12-18T16:05:51;25.55;;;10.45;;
4466;SDS011;2246;42.664;23.278;2022-12-18T16:08:17;21.85;;;9.82;;
4466;SDS011;2246;42.664;23.278;2022-12-18T16:10:43;22.50;;;10.52;;
4466;SDS011;2246;42.664;23.278;2022-12-18T16:13:12;24.95;;;11.15;;
4466;SDS011;2246;42.664;23.278;2022-12-18T16:15:41;24.30;;;10.88;;
4466;SDS011;2246;42.664;23.278;2022-12-18T16:18:07;24.98;;;10.45;;
4466;SDS011;2246;42.664;23.278;2022-12-18T16:20:33;21.42;;;9.88;;
4466;SDS011;2246;42.664;23.278;2022-12-18T16:23:00;24.48;;;11.50;;
4466;SDS011;2246;42.664;23.278;2022-12-18T16:25:27;22.95;;;10.98;;
4466;SDS011;2246;42.664;23.278;2022-12-18T16:27:53;23.20;;;10.50;;
4466;SDS011;2246;42.664;23.278;2022-12-18T16:30:29;22.05;;;10.48;;
4466;SDS011;2246;42.664;23.278;2022-12-18T16:32:56;24.27;;;10.23;;
4466;SDS011;2246;42.664;23.278;2022-12-18T16:35:23;25.63;;;11.07;;